createdAt,value
2023-02-03T00:01:51.346Z,9.03
2023-02-03T00:06:43.500Z,9.04
2023-02-03T00:11:35.223Z,9.06
2023-02-03T00:16:27.144Z,9.08
2023-02-03T00:21:18.996Z,9.08
2023-02-03T00:26:13.143Z,9.09
2023-02-03T00:31:05.311Z,9.09
2023-02-03T00:35:57.070Z,9.08
2023-02-03T00:40:53.640Z,9.10
2023-02-03T00:45:45.581Z,9.07
2023-02-03T00:50:37.395Z,9.12
2023-02-03T00:55:29.213Z,9.15
2023-02-03T01:00:21.197Z,9.16
2023-02-03T01:05:12.928Z,9.16
2023-02-03T01:10:05.365Z,9.17
2023-02-03T01:14:57.139Z,9.17
2023-02-03T01:19:50.321Z,9.18
2023-02-03T01:24:41.905Z,9.18
2023-02-03T01:29:33.570Z,9.19
2023-02-03T01:34:25.543Z,9.20
2023-02-03T01:39:17.337Z,9.23
2023-02-03T01:44:42.384Z,9.21
2023-02-03T01:49:36.777Z,9.21
2023-02-03T01:54:35.259Z,9.24
2023-02-03T01:59:28.705Z,9.25
2023-02-03T02:04:22.379Z,9.26
2023-02-03T02:09:16.002Z,9.27
2023-02-03T02:14:08.192Z,9.28
2023-02-03T02:19:18.307Z,9.29
2023-02-03T02:24:37.645Z,9.29
2023-02-03T02:29:29.262Z,9.29
2023-02-03T02:34:39.063Z,9.30
2023-02-03T02:39:56.722Z,9.30
2023-02-03T02:44:55.383Z,9.30
2023-02-03T02:50:05.262Z,9.30
2023-02-03T02:55:03.185Z,9.29
2023-02-03T02:59:54.981Z,9.26
2023-02-03T03:04:49.899Z,9.27
2023-02-03T03:10:01.149Z,9.25
2023-02-03T03:14:58.887Z,9.24
2023-02-03T03:19:57.751Z,9.23
2023-02-03T03:25:09.335Z,9.21
2023-02-03T03:30:06.582Z,9.21
2023-02-03T03:34:59.040Z,9.21
2023-02-03T03:39:56.708Z,9.23
2023-02-03T03:44:58.133Z,9.26
2023-02-03T03:49:51.713Z,9.27
2023-02-03T03:54:45.236Z,9.28
2023-02-03T03:59:41.561Z,9.27
2023-02-03T04:04:36.789Z,9.28
2023-02-03T04:09:29.665Z,9.26
2023-02-03T04:14:21.368Z,9.24
2023-02-03T04:19:13.080Z,9.24
2023-02-03T04:24:05.063Z,9.24
2023-02-03T04:28:56.874Z,9.25
2023-02-03T04:33:48.463Z,9.24
2023-02-03T04:38:40.143Z,9.23
2023-02-03T04:43:31.806Z,9.22
2023-02-03T04:48:23.414Z,9.24
2023-02-03T04:53:16.031Z,9.25
2023-02-03T04:58:09.070Z,9.26
2023-02-03T05:03:00.916Z,9.29
2023-02-03T05:07:52.662Z,9.29
2023-02-03T05:12:44.372Z,9.31
2023-02-03T05:17:40.219Z,9.30
2023-02-03T05:22:32.344Z,9.30
2023-02-03T05:27:24.006Z,9.31
2023-02-03T05:32:15.798Z,9.28
2023-02-03T05:37:07.466Z,9.28
2023-02-03T05:41:59.268Z,9.27
2023-02-03T05:46:53.441Z,9.27
2023-02-03T05:51:45.349Z,9.26
2023-02-03T05:56:37.051Z,9.25
2023-02-03T06:01:28.981Z,9.24
2023-02-03T06:06:20.708Z,9.25
2023-02-03T06:11:12.593Z,9.25
2023-02-03T06:16:04.727Z,9.27
2023-02-03T06:20:56.438Z,9.26
2023-02-03T06:25:49.457Z,9.24
2023-02-03T06:30:41.351Z,9.26
2023-02-03T06:35:33.253Z,9.27
2023-02-03T06:40:25.213Z,9.28
2023-02-03T06:45:17.805Z,9.33
2023-02-03T06:50:12.181Z,9.30
2023-02-03T06:55:05.486Z,9.34
2023-02-03T06:59:57.158Z,9.33
2023-02-03T07:04:48.829Z,9.33
2023-02-03T07:09:40.906Z,9.34
2023-02-03T07:14:34.240Z,9.35
2023-02-03T07:19:26.022Z,9.35
2023-02-03T07:24:17.764Z,9.38
2023-02-03T07:29:09.494Z,9.40
2023-02-03T07:34:01.479Z,9.40
2023-02-03T07:38:53.204Z,9.43
2023-02-03T07:43:44.932Z,9.45
2023-02-03T07:48:36.664Z,9.46
2023-02-03T07:53:28.467Z,9.46
2023-02-03T07:58:20.214Z,9.47
2023-02-03T08:03:11.982Z,9.46
2023-02-03T08:08:03.813Z,9.47
2023-02-03T08:12:56.097Z,9.48
2023-02-03T08:17:49.828Z,9.49
2023-02-03T08:22:41.704Z,9.49
2023-02-03T08:27:33.415Z,9.49
2023-02-03T08:32:25.280Z,9.49
2023-02-03T08:37:19.979Z,9.49
2023-02-03T08:42:12.025Z,9.48
2023-02-03T08:47:04.356Z,9.48
2023-02-03T08:51:56.988Z,9.48
2023-02-03T08:56:48.765Z,9.50
2023-02-03T09:01:40.902Z,9.48
2023-02-03T09:06:32.777Z,9.52
2023-02-03T09:11:24.545Z,9.53
2023-02-03T09:16:18.841Z,9.57
2023-02-03T09:21:15.943Z,9.61
2023-02-03T09:26:16.160Z,9.64
2023-02-03T09:31:10.518Z,9.67
2023-02-03T09:36:02.785Z,9.70
2023-02-03T09:41:15.739Z,9.76
2023-02-03T09:46:16.308Z,9.81
2023-02-03T09:51:20.093Z,9.88
2023-02-03T09:56:31.766Z,9.96
2023-02-03T10:01:29.432Z,10.07
2023-02-03T10:06:36.188Z,10.17
2023-02-03T10:11:40.067Z,10.27
2023-02-03T10:16:53.234Z,10.33
2023-02-03T10:21:52.549Z,10.39
2023-02-03T10:26:44.381Z,10.42
2023-02-03T10:31:38.003Z,10.49
2023-02-03T10:36:58.260Z,10.57
2023-02-03T10:41:50.043Z,10.65
2023-02-03T10:46:45.464Z,10.73
2023-02-03T10:51:54.759Z,10.83
2023-02-03T10:56:46.586Z,10.91
2023-02-03T11:01:44.740Z,11.03
2023-02-03T11:06:52.049Z,11.18
2023-02-03T11:11:43.754Z,11.33
2023-02-03T11:16:38.521Z,11.44
2023-02-03T11:21:44.072Z,11.58
2023-02-03T11:26:45.515Z,11.68
2023-02-03T11:31:37.916Z,11.83
2023-02-03T11:36:32.613Z,12.00
2023-02-03T11:41:24.270Z,12.16
2023-02-03T11:46:16.303Z,12.29
2023-02-03T11:51:35.941Z,12.49
2023-02-03T11:56:35.361Z,12.70
2023-02-03T12:01:48.646Z,12.88
2023-02-03T12:06:55.511Z,13.13
2023-02-03T12:11:53.159Z,13.41
2023-02-03T12:16:44.887Z,13.63
2023-02-03T12:21:56.711Z,13.71
2023-02-03T12:27:06.658Z,13.73
2023-02-03T12:32:30.573Z,13.92
2023-02-03T12:37:28.496Z,13.89
2023-02-03T12:42:32.057Z,13.79
2023-02-03T12:47:32.264Z,13.61
2023-02-03T12:52:54.308Z,13.41
2023-02-03T12:58:03.569Z,13.28
2023-02-03T13:03:20.004Z,13.18
2023-02-03T13:08:28.652Z,13.08
2023-02-03T13:13:29.507Z,13.00
2023-02-03T13:18:33.655Z,12.96
2023-02-03T13:23:25.801Z,12.86
2023-02-03T13:28:29.216Z,12.79
2023-02-03T13:33:44.769Z,12.74
2023-02-03T13:38:55.413Z,12.67
2023-02-03T13:43:51.439Z,12.59
2023-02-03T13:48:45.916Z,12.51
2023-02-03T13:53:40.562Z,12.46
2023-02-03T13:58:38.166Z,12.42
2023-02-03T14:03:29.954Z,12.41
2023-02-03T14:08:27.669Z,12.35
2023-02-03T14:13:20.966Z,12.34
2023-02-03T14:18:46.204Z,12.34
2023-02-03T14:23:45.934Z,12.28
2023-02-03T14:28:41.969Z,12.22
2023-02-03T14:33:48.940Z,12.14
2023-02-03T14:38:41.446Z,12.10
2023-02-03T14:43:49.582Z,12.07
2023-02-03T14:48:54.973Z,12.02
2023-02-03T14:54:13.242Z,11.92
2023-02-03T14:59:10.562Z,11.84
2023-02-03T15:04:11.131Z,11.78
2023-02-03T15:09:19.795Z,11.75
2023-02-03T15:14:21.094Z,11.68
2023-02-03T15:19:22.592Z,11.60
2023-02-03T15:24:18.651Z,11.52
2023-02-03T15:29:22.095Z,11.46
2023-02-03T15:34:41.431Z,11.36
2023-02-03T15:39:53.527Z,11.24
2023-02-03T15:44:57.619Z,11.14
2023-02-03T15:50:00.923Z,11.07
2023-02-03T15:55:04.052Z,11.02
2023-02-03T16:00:01.831Z,10.98
2023-02-03T16:04:54.272Z,10.98
2023-02-03T16:09:46.057Z,11.01
2023-02-03T16:14:37.812Z,10.98
2023-02-03T16:19:38.483Z,10.99
2023-02-03T16:24:33.138Z,10.99
2023-02-03T16:29:47.786Z,10.97
2023-02-03T16:34:57.977Z,10.94
2023-02-03T16:40:08.478Z,10.90
2023-02-03T16:45:19.024Z,10.88
2023-02-03T16:50:41.740Z,10.81
2023-02-03T16:55:34.453Z,10.73
2023-02-03T17:00:26.193Z,10.66
2023-02-03T17:05:18.047Z,10.57
2023-02-03T17:10:10.245Z,10.52
2023-02-03T17:15:01.971Z,10.47
2023-02-03T17:19:53.674Z,10.36
2023-02-03T17:24:45.621Z,10.35
2023-02-03T17:29:37.939Z,10.33
2023-02-03T17:34:29.605Z,10.29
2023-02-03T17:54:49.219Z,10.11
2023-02-03T17:59:40.912Z,10.10
2023-02-03T18:04:32.698Z,10.10
2023-02-03T18:09:24.606Z,10.05
2023-02-03T18:14:16.815Z,10.01
2023-02-03T18:19:12.899Z,10.01
2023-02-03T18:24:05.991Z,10.00
2023-02-03T18:28:57.669Z,10.00
2023-02-03T18:33:49.418Z,9.98
2023-02-03T18:38:43.295Z,9.98
2023-02-03T18:43:35.578Z,9.96
2023-02-03T18:48:27.198Z,9.96
2023-02-03T18:53:18.934Z,9.96
2023-02-03T18:58:12.657Z,9.95
2023-02-03T19:03:04.533Z,9.95
2023-02-03T19:07:56.469Z,9.95
2023-02-03T19:12:48.182Z,9.95
2023-02-03T19:17:40.056Z,9.94
2023-02-03T19:22:32.770Z,9.94
2023-02-03T19:27:25.087Z,9.96
2023-02-03T19:32:16.912Z,9.98
2023-02-03T19:37:08.832Z,9.96
2023-02-03T19:42:00.855Z,9.96
2023-02-03T19:46:52.635Z,9.95
2023-02-03T19:51:45.024Z,9.90
2023-02-03T19:56:37.005Z,9.88
2023-02-03T20:01:29.476Z,9.86
2023-02-03T20:06:21.265Z,9.81
2023-02-03T20:11:13.670Z,9.80
2023-02-03T20:16:05.717Z,9.78
2023-02-03T20:20:57.538Z,9.74
2023-02-03T20:25:50.538Z,9.70
2023-02-03T20:30:42.321Z,9.66
2023-02-03T20:35:34.094Z,9.65
2023-02-03T20:40:27.811Z,9.64
2023-02-03T20:45:22.389Z,9.61
2023-02-03T20:50:18.373Z,9.58
2023-02-03T20:55:15.792Z,9.56
2023-02-03T21:00:22.916Z,9.55
2023-02-03T21:05:26.003Z,9.54
2023-02-03T21:10:21.092Z,9.53
2023-02-03T21:15:28.268Z,9.49
2023-02-03T21:20:29.555Z,9.48
2023-02-03T21:25:33.413Z,9.49
2023-02-03T21:30:30.579Z,9.47
2023-02-03T21:35:32.179Z,9.45
2023-02-03T21:40:30.084Z,9.40
2023-02-03T21:45:24.264Z,9.40
2023-02-03T21:50:35.054Z,9.38
2023-02-03T21:55:26.769Z,9.34
2023-02-03T22:00:43.464Z,9.35
2023-02-03T22:05:38.282Z,9.34
2023-02-03T22:10:30.307Z,9.34
2023-02-03T22:15:22.519Z,9.35
2023-02-03T22:20:14.287Z,9.32
2023-02-03T22:25:06.503Z,9.31
2023-02-03T22:29:58.265Z,9.31
2023-02-03T22:34:49.921Z,9.33
2023-02-03T22:39:41.729Z,9.31
2023-02-03T22:44:33.397Z,9.28
2023-02-03T22:49:25.204Z,9.28
2023-02-03T22:54:16.916Z,9.24
2023-02-03T22:59:08.573Z,9.25
2023-02-03T23:04:00.467Z,9.25
2023-02-03T23:08:53.067Z,9.23
2023-02-03T23:13:44.847Z,9.21
2023-02-03T23:18:36.645Z,9.23
2023-02-03T23:23:28.446Z,9.25
2023-02-03T23:28:20.168Z,9.24
2023-02-03T23:33:12.049Z,9.22
2023-02-03T23:38:03.864Z,9.20
2023-02-03T23:42:55.960Z,9.13
2023-02-03T23:47:48.116Z,9.12
2023-02-03T23:52:39.877Z,9.11
2023-02-03T23:57:31.675Z,9.08
